createdAt,value
2022-10-09T00:00:49.275Z,100254.05
2022-10-09T00:01:52.958Z,100248.75
2022-10-09T00:02:54.589Z,100246.38
2022-10-09T00:03:58.385Z,100254.39
2022-10-09T00:05:00.283Z,100248.33
2022-10-09T00:06:02.627Z,100240.37
2022-10-09T00:07:04.145Z,100245.44
2022-10-09T00:08:06.236Z,100238.57
2022-10-09T00:09:07.842Z,100242.84
2022-10-09T00:10:10.537Z,100244.70
2022-10-09T00:11:18.023Z,100239.05
2022-10-09T00:12:19.708Z,100237.19
2022-10-09T00:13:21.921Z,100238.80
2022-10-09T00:14:23.593Z,100231.77
2022-10-09T00:15:25.262Z,100236.70
2022-10-09T00:16:27.548Z,100229.32
2022-10-09T00:17:30.203Z,100230.87
2022-10-09T00:18:32.941Z,100229.97
2022-10-09T00:19:34.803Z,100225.56
2022-10-09T00:20:38.250Z,100223.06
2022-10-09T00:21:39.901Z,100218.54
2022-10-09T00:22:41.464Z,100219.11
2022-10-09T00:23:43.111Z,100214.45
2022-10-09T00:24:44.585Z,100209.87
2022-10-09T00:25:55.002Z,100211.45
2022-10-09T00:26:56.572Z,100202.64
2022-10-09T00:27:59.207Z,100212.24
2022-10-09T00:29:01.300Z,100206.91
2022-10-09T00:30:04.461Z,100212.18
2022-10-09T00:31:08.733Z,100211.11
2022-10-09T00:32:11.999Z,100211.11
2022-10-09T00:33:14.437Z,100204.11
2022-10-09T00:34:16.099Z,100204.53
2022-10-09T00:35:18.380Z,100211.92
2022-10-09T00:36:24.050Z,100209.62
2022-10-09T00:37:27.299Z,100198.09
2022-10-09T00:38:29.360Z,100206.27
2022-10-09T00:39:31.030Z,100205.91
2022-10-09T00:40:34.356Z,100201.70
2022-10-09T00:41:36.238Z,100206.34
2022-10-09T00:42:37.894Z,100200.00
2022-10-09T00:43:43.090Z,100203.21
2022-10-09T00:44:54.407Z,100202.24
2022-10-09T00:45:56.234Z,100201.17
2022-10-09T00:46:58.938Z,100205.23
2022-10-09T00:48:04.645Z,100200.56
2022-10-09T00:49:28.247Z,100190.89
2022-10-09T00:50:51.791Z,100192.72
2022-10-09T00:51:56.547Z,100190.89
2022-10-09T00:53:00.672Z,100183.39
2022-10-09T00:54:06.329Z,100182.73
2022-10-09T00:55:09.613Z,100177.45
2022-10-09T00:56:12.378Z,100183.63
2022-10-09T00:57:14.695Z,100179.66
2022-10-09T00:58:16.823Z,100187.17
2022-10-09T00:59:19.901Z,100184.63
2022-10-09T01:00:23.191Z,100180.50
2022-10-09T01:01:25.880Z,100188.02
2022-10-09T01:02:28.276Z,100194.34
2022-10-09T01:03:30.551Z,100186.25
2022-10-09T01:04:33.230Z,100185.09
2022-10-09T01:05:50.799Z,100182.30
2022-10-09T01:06:59.246Z,100189.09
2022-10-09T01:08:20.286Z,100188.14
2022-10-09T01:10:47.944Z,100183.30
2022-10-09T01:12:02.143Z,100177.06
2022-10-09T01:13:13.734Z,100175.46
2022-10-09T01:14:19.974Z,100178.19
2022-10-09T01:15:25.701Z,100174.69
2022-10-09T01:16:36.109Z,100179.70
2022-10-09T01:17:47.844Z,100166.59
2022-10-09T01:19:11.773Z,100175.94
2022-10-09T01:20:34.689Z,100174.90
2022-10-09T01:21:47.423Z,100171.39
2022-10-09T01:23:04.875Z,100170.23
2022-10-09T01:24:25.866Z,100175.59
2022-10-09T01:25:36.429Z,100173.09
2022-10-09T01:27:00.139Z,100170.96
2022-10-09T01:28:06.747Z,100164.73
2022-10-09T01:29:11.312Z,100167.33
2022-10-09T01:30:13.807Z,100166.09
2022-10-09T01:31:17.507Z,100167.66
2022-10-09T01:32:23.241Z,100168.53
2022-10-09T01:33:27.753Z,100174.56
2022-10-09T01:34:31.596Z,100172.53
2022-10-09T01:35:34.490Z,100168.90
2022-10-09T01:36:39.058Z,100174.90
2022-10-09T01:37:44.784Z,100164.43
2022-10-09T01:38:48.747Z,100172.09
2022-10-09T01:39:52.739Z,100167.77
2022-10-09T01:40:56.337Z,100169.33
2022-10-09T01:41:58.510Z,100166.42
2022-10-09T01:43:00.743Z,100168.81
2022-10-09T01:44:03.173Z,100168.68
2022-10-09T01:45:06.195Z,100167.88
2022-10-09T01:46:23.257Z,100171.42
2022-10-09T01:47:25.699Z,100168.81
2022-10-09T01:48:28.244Z,100171.09
2022-10-09T01:49:43.242Z,100176.94
2022-10-09T01:50:48.027Z,100180.22
2022-10-09T01:52:12.169Z,100182.68
2022-10-09T01:53:18.535Z,100170.22
2022-10-09T01:54:28.056Z,100173.94
2022-10-09T01:55:45.823Z,100179.25
2022-10-09T01:56:50.698Z,100168.11
2022-10-09T01:58:05.522Z,100171.24
2022-10-09T01:59:15.849Z,100172.73
2022-10-09T02:00:18.050Z,100179.47
2022-10-09T02:01:30.028Z,100175.59
2022-10-09T02:02:33.202Z,100179.16
2022-10-09T02:03:37.773Z,100176.33
2022-10-09T02:04:42.669Z,100165.52
2022-10-09T02:05:48.813Z,100165.52
2022-10-09T02:06:51.891Z,100165.67
2022-10-09T02:07:56.085Z,100171.67
2022-10-09T02:08:58.976Z,100166.33
2022-10-09T02:10:04.201Z,100169.55
2022-10-09T02:11:06.284Z,100169.55
2022-10-09T02:12:11.260Z,100168.70
2022-10-09T02:13:13.150Z,100167.84
2022-10-09T02:14:15.586Z,100168.36
2022-10-09T02:15:18.441Z,100168.78
2022-10-09T02:16:25.384Z,100167.26
2022-10-09T02:17:31.353Z,100167.83
2022-10-09T02:18:47.545Z,100172.81
2022-10-09T02:19:53.270Z,100167.95
2022-10-09T02:20:59.315Z,100166.78
2022-10-09T02:22:11.070Z,100167.52
2022-10-09T02:23:16.452Z,100159.67
2022-10-09T02:24:21.129Z,100169.23
2022-10-09T02:25:25.016Z,100166.87
2022-10-09T02:26:27.870Z,100174.57
2022-10-09T02:27:30.433Z,100167.67
2022-10-09T02:28:32.413Z,100172.06
2022-10-09T02:29:34.877Z,100165.97
2022-10-09T02:30:52.961Z,100169.31
2022-10-09T02:31:55.382Z,100162.75
2022-10-09T02:32:57.222Z,100161.26
2022-10-09T02:34:03.354Z,100164.66
2022-10-09T02:35:06.015Z,100163.59
2022-10-09T02:36:10.345Z,100165.34
2022-10-09T02:37:12.883Z,100165.58
2022-10-09T02:38:14.836Z,100162.51
2022-10-09T02:39:17.492Z,100165.70
2022-10-09T02:40:19.681Z,100165.70
2022-10-09T02:41:22.002Z,100165.50
2022-10-09T02:42:24.139Z,100167.20
2022-10-09T02:43:26.482Z,100170.69
2022-10-09T02:44:28.843Z,100167.95
2022-10-09T02:45:31.033Z,100166.98
2022-10-09T02:46:34.169Z,100163.50
2022-10-09T02:47:36.291Z,100168.93
2022-10-09T02:48:38.173Z,100167.49
2022-10-09T02:49:39.905Z,100158.81
2022-10-09T02:50:42.076Z,100164.84
2022-10-09T02:51:44.806Z,100156.06
2022-10-09T02:52:47.320Z,100164.69
2022-10-09T02:53:54.899Z,100161.26
2022-10-09T02:54:56.840Z,100155.11
2022-10-09T02:55:58.806Z,100158.66
2022-10-09T02:57:01.060Z,100159.85
2022-10-09T02:58:02.919Z,100159.02
2022-10-09T02:59:04.695Z,100159.02
2022-10-09T03:00:09.775Z,100163.55
2022-10-09T03:01:13.041Z,100156.36
2022-10-09T03:02:14.975Z,100158.00
2022-10-09T03:03:18.858Z,100151.83
2022-10-09T03:04:20.937Z,100152.03
2022-10-09T03:05:23.284Z,100150.34
2022-10-09T03:06:27.260Z,100159.02
2022-10-09T03:07:29.464Z,100152.93
2022-10-09T03:08:31.690Z,100151.31
2022-10-09T03:09:34.014Z,100153.97
2022-10-09T03:10:41.079Z,100146.09
2022-10-09T03:11:43.024Z,100145.29
2022-10-09T03:12:45.938Z,100146.93
2022-10-09T03:13:48.624Z,100140.93
2022-10-09T03:14:50.496Z,100139.27
2022-10-09T03:15:52.661Z,100140.99
2022-10-09T03:16:54.677Z,100141.11
2022-10-09T03:17:56.435Z,100139.29
2022-10-09T03:18:59.452Z,100135.17
2022-10-09T03:20:01.459Z,100136.15
2022-10-09T03:21:09.814Z,100135.26
2022-10-09T03:22:13.383Z,100131.77
2022-10-09T03:23:16.384Z,100139.50
2022-10-09T03:24:18.193Z,100142.03
2022-10-09T03:25:20.162Z,100134.97
2022-10-09T03:26:25.976Z,100142.69
2022-10-09T03:27:28.186Z,100140.78
2022-10-09T03:28:31.047Z,100139.05
2022-10-09T03:29:33.208Z,100131.27
2022-10-09T03:30:37.177Z,100139.68
2022-10-09T03:31:51.793Z,100136.13
2022-10-09T03:32:43.431Z,100128.19
2022-10-09T03:33:45.562Z,100130.63
2022-10-09T03:34:47.845Z,100135.70
2022-10-09T03:35:50.321Z,100131.32
2022-10-09T03:36:52.829Z,100127.36
2022-10-09T03:37:54.809Z,100127.36
2022-10-09T03:38:56.551Z,100126.46
2022-10-09T03:39:58.623Z,100126.64
2022-10-09T03:41:02.833Z,100126.64
2022-10-09T03:42:05.123Z,100135.23
2022-10-09T03:43:07.547Z,100140.04
2022-10-09T03:44:09.500Z,100131.36
2022-10-09T03:45:11.244Z,100125.21
2022-10-09T03:46:14.040Z,100129.36
2022-10-09T03:47:16.517Z,100129.14
2022-10-09T03:48:18.828Z,100127.23
2022-10-09T03:49:22.090Z,100127.56
2022-10-09T03:50:25.037Z,100118.02
2022-10-09T03:51:26.838Z,100122.59
2022-10-09T03:52:28.912Z,100125.27
2022-10-09T03:53:31.326Z,100129.36
2022-10-09T03:54:33.331Z,100119.06
2022-10-09T03:55:36.484Z,100127.78
2022-10-09T03:56:38.651Z,100120.97
2022-10-09T03:57:40.529Z,100119.06
2022-10-09T03:58:42.293Z,100121.84
2022-10-09T03:59:45.194Z,100119.98
2022-10-09T04:00:49.888Z,100119.98
2022-10-09T04:01:52.354Z,100118.91
2022-10-09T04:02:54.730Z,100118.85
2022-10-09T04:03:57.079Z,100119.78
2022-10-09T04:04:59.150Z,100120.67
2022-10-09T04:06:02.237Z,100123.36
2022-10-09T04:07:04.430Z,100124.67
2022-10-09T04:08:07.372Z,100128.87
2022-10-09T04:09:09.420Z,100120.97
2022-10-09T04:10:12.279Z,100134.76
2022-10-09T04:11:14.286Z,100129.50
2022-10-09T04:12:16.354Z,100129.36
2022-10-09T04:13:18.391Z,100128.61
2022-10-09T04:14:20.340Z,100127.66
2022-10-09T04:15:22.201Z,100125.74
2022-10-09T04:16:25.453Z,100123.95
2022-10-09T04:17:27.516Z,100124.16
2022-10-09T04:18:30.160Z,100125.33
2022-10-09T04:19:32.589Z,100129.45
2022-10-09T04:20:37.111Z,100129.23
2022-10-09T04:21:39.061Z,100119.51
2022-10-09T04:22:40.864Z,100120.25
2022-10-09T04:23:42.611Z,100121.95
2022-10-09T04:24:44.712Z,100121.83
2022-10-09T04:25:46.891Z,100115.80
2022-10-09T04:26:49.009Z,100123.53
2022-10-09T04:27:51.004Z,100120.87
2022-10-09T04:28:52.942Z,100117.66
2022-10-09T04:29:54.792Z,100118.55
2022-10-09T04:30:58.333Z,100115.36
2022-10-09T04:32:00.639Z,100118.77
2022-10-09T04:33:03.273Z,100118.97
2022-10-09T04:34:05.860Z,100120.83
2022-10-09T04:35:08.353Z,100118.08
2022-10-09T04:36:10.832Z,100124.16
2022-10-09T04:37:13.500Z,100120.08
2022-10-09T04:38:15.412Z,100124.16
2022-10-09T04:39:17.345Z,100125.21
2022-10-09T04:40:19.960Z,100120.77
2022-10-09T04:41:22.539Z,100121.57
2022-10-09T04:42:24.649Z,100122.37
2022-10-09T04:43:27.398Z,100124.05
2022-10-09T04:44:29.578Z,100121.66
2022-10-09T04:45:33.786Z,100123.36
2022-10-09T04:46:36.527Z,100124.16
2022-10-09T04:47:38.637Z,100126.82
2022-10-09T04:48:42.605Z,100122.67
2022-10-09T04:49:44.721Z,100128.87
2022-10-09T04:50:47.075Z,100126.97
2022-10-09T04:51:49.109Z,100126.70
2022-10-09T04:52:52.421Z,100123.95
2022-10-09T04:54:00.283Z,100120.31
2022-10-09T04:54:59.581Z,100130.52
2022-10-09T04:56:05.702Z,100127.02
2022-10-09T04:57:07.743Z,100124.70
2022-10-09T04:58:11.162Z,100120.34
2022-10-09T04:59:13.831Z,100121.08
2022-10-09T05:00:16.502Z,100120.34
2022-10-09T05:01:21.917Z,100126.34
2022-10-09T05:02:24.196Z,100127.23
2022-10-09T05:03:27.170Z,100125.13
2022-10-09T05:04:29.418Z,100126.49
2022-10-09T05:05:32.064Z,100126.49
2022-10-09T05:06:35.510Z,100120.98
2022-10-09T05:07:37.421Z,100131.95
2022-10-09T05:08:40.392Z,100123.23
2022-10-09T05:09:42.619Z,100125.95
2022-10-09T05:10:44.565Z,100130.80
2022-10-09T05:11:46.538Z,100125.31
2022-10-09T05:12:49.943Z,100123.61
2022-10-09T05:13:55.100Z,100130.26
2022-10-09T05:14:58.291Z,100138.73
2022-10-09T05:16:06.528Z,100136.80
2022-10-09T05:17:14.278Z,100134.84
2022-10-09T05:18:12.607Z,100132.50
2022-10-09T05:19:14.381Z,100135.91
2022-10-09T05:20:17.792Z,100135.58
2022-10-09T05:21:20.895Z,100133.72
2022-10-09T05:22:23.192Z,100130.16
2022-10-09T05:23:25.211Z,100128.89
2022-10-09T05:24:28.016Z,100130.83
2022-10-09T05:25:30.076Z,100134.33
2022-10-09T05:26:32.409Z,100139.45
2022-10-09T05:27:34.297Z,100135.68
2022-10-09T05:28:37.363Z,100135.45
2022-10-09T05:29:39.555Z,100140.88
2022-10-09T05:30:41.886Z,100136.48
2022-10-09T05:31:49.099Z,100135.68
2022-10-09T05:32:49.073Z,100131.34
2022-10-09T05:33:52.180Z,100133.59
2022-10-09T05:34:54.097Z,100139.52
2022-10-09T05:35:58.882Z,100140.39
2022-10-09T05:37:01.097Z,100142.76
2022-10-09T05:38:02.915Z,100137.27
2022-10-09T05:39:04.807Z,100139.45
2022-10-09T05:40:09.171Z,100130.25
2022-10-09T05:41:13.754Z,100130.25
2022-10-09T05:42:15.760Z,100133.81
2022-10-09T05:43:18.093Z,100127.56
2022-10-09T05:44:20.186Z,100128.33
2022-10-09T05:45:23.574Z,100133.98
2022-10-09T05:46:26.419Z,100130.80
2022-10-09T05:47:30.429Z,100125.73
2022-10-09T05:48:32.542Z,100127.44
2022-10-09T05:49:34.658Z,100129.68
2022-10-09T05:50:36.793Z,100129.25
2022-10-09T05:51:40.130Z,100132.36
2022-10-09T05:52:42.028Z,100129.53
2022-10-09T05:53:45.293Z,100134.33
2022-10-09T05:54:48.331Z,100135.69
2022-10-09T05:55:50.397Z,100139.81
2022-10-09T05:56:52.957Z,100133.33
2022-10-09T05:57:55.215Z,100137.35
2022-10-09T05:58:59.982Z,100140.89
2022-10-09T06:00:03.302Z,100132.15
2022-10-09T06:01:07.917Z,100135.52
2022-10-09T06:02:10.480Z,100138.36
2022-10-09T06:03:13.778Z,100133.78
2022-10-09T06:04:18.823Z,100141.41
2022-10-09T06:05:21.634Z,100143.69
2022-10-09T06:06:26.533Z,100134.98
2022-10-09T06:07:29.332Z,100140.01
2022-10-09T06:08:34.002Z,100145.67
2022-10-09T06:09:36.021Z,100138.84
2022-10-09T06:10:38.604Z,100138.53
2022-10-09T06:11:41.502Z,100145.02
2022-10-09T06:12:43.591Z,100143.32
2022-10-09T06:13:46.386Z,100144.95
2022-10-09T06:14:48.353Z,100142.42
2022-10-09T06:15:55.375Z,100148.45
2022-10-09T06:16:58.077Z,100149.48
2022-10-09T06:18:00.109Z,100149.91
2022-10-09T06:19:03.421Z,100149.56
2022-10-09T06:20:07.406Z,100146.72
2022-10-09T06:21:09.377Z,100150.47
2022-10-09T06:22:11.423Z,100157.38
2022-10-09T06:23:13.221Z,100153.31
2022-10-09T06:25:31.249Z,100145.39
2022-10-09T06:26:34.494Z,100147.06
2022-10-09T06:27:37.620Z,100152.65
2022-10-09T06:28:40.926Z,100151.27
2022-10-09T06:29:43.044Z,100149.98
2022-10-09T06:30:45.136Z,100155.80
2022-10-09T06:31:47.167Z,100150.94
2022-10-09T06:32:49.479Z,100154.08
2022-10-09T06:33:52.918Z,100152.34
2022-10-09T06:34:55.073Z,100153.72
2022-10-09T06:36:10.376Z,100152.55
2022-10-09T06:37:11.688Z,100151.97
2022-10-09T06:38:16.119Z,100149.24
2022-10-09T06:39:18.833Z,100145.47
2022-10-09T06:40:21.116Z,100150.22
2022-10-09T06:41:26.565Z,100150.00
2022-10-09T06:42:29.191Z,100150.08
2022-10-09T06:43:32.957Z,100150.48
2022-10-09T06:44:34.772Z,100155.55
2022-10-09T06:45:37.346Z,100150.34
2022-10-09T06:46:40.944Z,100152.30
2022-10-09T06:47:43.145Z,100148.53
2022-10-09T06:48:45.190Z,100153.73
2022-10-09T06:49:47.135Z,100151.39
2022-10-09T06:50:49.048Z,100147.99
2022-10-09T06:51:51.372Z,100148.25
2022-10-09T06:52:53.421Z,100148.25
2022-10-09T06:53:58.323Z,100150.67
2022-10-09T06:55:00.393Z,100162.34
2022-10-09T06:56:03.763Z,100155.02
2022-10-09T06:57:06.243Z,100159.48
2022-10-09T06:58:08.689Z,100154.98
2022-10-09T06:59:11.216Z,100154.12
2022-10-09T07:00:15.321Z,100153.33
2022-10-09T07:01:22.917Z,100151.44
2022-10-09T07:02:26.401Z,100158.69
2022-10-09T07:03:28.973Z,100154.00
2022-10-09T07:04:31.300Z,100158.42
2022-10-09T07:05:33.312Z,100160.65
2022-10-09T07:06:41.839Z,100146.04
2022-10-09T07:07:44.408Z,100150.61
2022-10-09T07:08:49.545Z,100152.83
2022-10-09T07:09:51.417Z,100151.92
2022-10-09T07:10:53.366Z,100146.83
2022-10-09T07:11:55.407Z,100156.98
2022-10-09T07:12:58.402Z,100148.60
2022-10-09T07:14:03.148Z,100149.09
2022-10-09T07:15:07.904Z,100152.41
2022-10-09T07:16:11.589Z,100155.02
2022-10-09T07:17:13.769Z,100154.52
2022-10-09T07:18:15.952Z,100152.94
2022-10-09T07:19:18.586Z,100145.36
2022-10-09T07:20:22.505Z,100155.14
2022-10-09T07:21:24.650Z,100146.41
2022-10-09T07:22:27.226Z,100146.91
2022-10-09T07:23:30.649Z,100161.12
2022-10-09T07:24:32.955Z,100155.15
2022-10-09T07:25:38.651Z,100151.12
2022-10-09T07:26:43.867Z,100148.31
2022-10-09T07:27:46.241Z,100145.36
2022-10-09T07:28:49.401Z,100143.94
2022-10-09T07:29:52.095Z,100150.84
2022-10-09T07:30:54.530Z,100145.63
2022-10-09T07:31:56.496Z,100151.63
2022-10-09T07:32:59.434Z,100141.84
2022-10-09T07:34:02.497Z,100147.56
2022-10-09T07:35:05.874Z,100145.55
2022-10-09T07:36:10.403Z,100140.20
2022-10-09T07:37:12.503Z,100135.42
2022-10-09T07:38:14.479Z,100147.39
2022-10-09T07:39:16.990Z,100137.74
2022-10-09T07:40:20.353Z,100137.38
2022-10-09T07:41:25.489Z,100135.67
2022-10-09T07:42:27.355Z,100138.36
2022-10-09T07:43:29.888Z,100136.79
2022-10-09T07:44:32.902Z,100131.27
2022-10-09T07:45:35.194Z,100132.08
2022-10-09T07:46:38.287Z,100129.80
2022-10-09T07:47:40.314Z,100127.49
2022-10-09T07:48:42.292Z,100124.66
2022-10-09T07:49:44.174Z,100124.44
2022-10-09T07:50:46.191Z,100129.34
2022-10-09T07:51:48.112Z,100126.42
2022-10-09T07:52:51.721Z,100126.42
2022-10-09T07:53:54.572Z,100123.20
2022-10-09T07:54:56.803Z,100130.12
2022-10-09T07:55:59.258Z,100129.26
2022-10-09T07:57:02.110Z,100122.88
2022-10-09T07:58:04.618Z,100135.35
2022-10-09T07:59:10.105Z,100133.17
2022-10-09T08:00:13.175Z,100129.81
2022-10-09T08:01:19.813Z,100126.56
2022-10-09T08:02:19.759Z,100122.03
2022-10-09T08:03:22.011Z,100118.35
2022-10-09T08:04:24.061Z,100123.41
2022-10-09T08:05:26.528Z,100126.00
2022-10-09T08:06:32.049Z,100123.30
2022-10-09T08:07:35.135Z,100135.44
2022-10-09T08:08:37.684Z,100126.69
2022-10-09T08:09:39.590Z,100129.36
2022-10-09T08:10:42.806Z,100133.75
2022-10-09T08:11:45.097Z,100124.27
2022-10-09T08:12:47.379Z,100126.74
2022-10-09T08:13:51.226Z,100127.38
2022-10-09T08:14:53.184Z,100122.98
2022-10-09T08:15:57.658Z,100125.50
2022-10-09T08:17:00.365Z,100120.28
2022-10-09T08:18:03.381Z,100121.83
2022-10-09T08:19:05.236Z,100121.66
2022-10-09T08:20:10.372Z,100117.52
2022-10-09T08:21:15.783Z,100115.23
2022-10-09T08:22:18.403Z,100108.45
2022-10-09T08:23:20.226Z,100117.20
2022-10-09T08:24:22.170Z,100113.44
2022-10-09T08:25:24.548Z,100106.29
2022-10-09T08:26:30.138Z,100107.89
2022-10-09T08:27:32.547Z,100106.14
2022-10-09T08:28:35.062Z,100104.45
2022-10-09T08:29:40.255Z,100109.67
2022-10-09T08:30:41.973Z,100100.92
2022-10-09T08:31:44.041Z,100100.59
2022-10-09T08:32:50.863Z,100098.58
2022-10-09T08:33:56.214Z,100097.42
2022-10-09T08:34:59.946Z,100102.80
2022-10-09T08:36:13.468Z,100099.95
2022-10-09T08:37:22.494Z,100099.95
2022-10-09T08:38:46.099Z,100101.41
2022-10-09T08:39:27.599Z,100101.99
2022-10-09T08:40:42.021Z,100100.73
2022-10-09T08:41:47.778Z,100101.33
2022-10-09T08:44:31.019Z,100096.11
2022-10-09T08:45:35.441Z,100105.22
2022-10-09T08:47:02.242Z,100103.22
2022-10-09T08:48:07.996Z,100103.12
2022-10-09T08:49:14.207Z,100096.88
2022-10-09T08:50:20.744Z,100104.23
2022-10-09T08:51:26.351Z,100101.44
2022-10-09T08:52:41.763Z,100096.97
2022-10-09T08:54:05.717Z,100089.02
2022-10-09T08:55:29.662Z,100099.24
2022-10-09T08:56:33.589Z,100088.43
2022-10-09T08:57:36.673Z,100094.09
2022-10-09T08:58:41.024Z,100089.42
2022-10-09T08:59:43.930Z,100077.68
2022-10-09T09:00:55.301Z,100089.66
2022-10-09T09:02:08.928Z,100081.67
2022-10-09T09:03:26.864Z,100076.08
2022-10-09T09:05:06.106Z,100079.11
2022-10-09T09:06:13.931Z,100071.05
2022-10-09T09:07:48.607Z,100068.07
2022-10-09T09:09:00.560Z,100063.43
2022-10-09T09:10:11.045Z,100062.04
2022-10-09T09:11:22.093Z,100059.98
2022-10-09T09:12:34.307Z,100060.64
2022-10-09T09:13:45.437Z,100054.58
2022-10-09T09:14:54.694Z,100053.55
2022-10-09T09:16:22.580Z,100055.23
2022-10-09T09:17:33.831Z,100055.62
2022-10-09T09:18:51.398Z,100061.59
2022-10-09T09:20:12.034Z,100052.80
2022-10-09T09:21:26.957Z,100059.84
2022-10-09T09:22:33.429Z,100058.05
2022-10-09T09:23:42.214Z,100068.73
2022-10-09T09:24:53.633Z,100067.60
2022-10-09T09:25:56.182Z,100071.91
2022-10-09T09:27:02.348Z,100063.29
2022-10-09T09:29:37.104Z,100064.06
2022-10-09T09:30:46.677Z,100070.22
2022-10-09T09:31:53.304Z,100068.81
2022-10-09T09:34:41.426Z,100073.25
2022-10-09T09:36:02.003Z,100068.16
2022-10-09T09:37:04.478Z,100068.27
2022-10-09T09:38:08.070Z,100064.78
2022-10-09T09:41:22.532Z,100077.81
2022-10-09T09:42:25.737Z,100070.51
2022-10-09T09:43:28.684Z,100071.17
2022-10-09T09:44:33.736Z,100068.38
2022-10-09T09:45:35.810Z,100070.41
2022-10-09T09:46:38.875Z,100066.65
2022-10-09T09:47:50.981Z,100077.69
2022-10-09T09:48:53.194Z,100079.38
2022-10-09T09:49:58.453Z,100076.59
2022-10-09T09:51:26.873Z,100075.27
2022-10-09T09:52:08.594Z,100071.44
2022-10-09T09:53:34.045Z,100069.30
2022-10-09T09:54:37.105Z,100064.72
2022-10-09T09:55:39.806Z,100073.97
2022-10-09T09:57:48.745Z,100073.80
2022-10-09T09:58:53.916Z,100067.69
2022-10-09T10:00:07.873Z,100074.55
2022-10-09T10:01:20.998Z,100064.63
2022-10-09T10:02:25.402Z,100069.66
2022-10-09T10:03:27.481Z,100064.89
2022-10-09T10:04:30.452Z,100060.09
2022-10-09T10:05:36.242Z,100051.97
2022-10-09T10:06:46.202Z,100049.91
2022-10-09T10:07:48.413Z,100057.58
2022-10-09T10:09:03.111Z,100053.48
2022-10-09T10:10:15.596Z,100054.70
2022-10-09T10:11:19.028Z,100046.34
2022-10-09T10:12:24.767Z,100052.05
2022-10-09T10:13:39.489Z,100054.78
2022-10-09T10:14:45.193Z,100059.95
2022-10-09T10:15:53.029Z,100056.28
2022-10-09T10:16:58.474Z,100051.67
2022-10-09T10:18:07.603Z,100049.06
2022-10-09T10:19:25.056Z,100048.50
2022-10-09T10:20:30.466Z,100049.04
2022-10-09T10:21:41.852Z,100058.21
2022-10-09T10:22:52.361Z,100047.71
2022-10-09T10:25:05.091Z,100053.72
2022-10-09T10:26:29.656Z,100048.28
2022-10-09T10:27:42.417Z,100050.52
2022-10-09T10:29:07.069Z,100046.48
2022-10-09T10:30:13.650Z,100048.39
2022-10-09T10:32:53.393Z,100040.97
2022-10-09T10:33:58.983Z,100046.28
2022-10-09T10:35:08.240Z,100041.57
2022-10-09T10:36:12.293Z,100042.80
2022-10-09T10:37:21.495Z,100045.13
2022-10-09T10:38:35.834Z,100043.44
2022-10-09T10:41:05.290Z,100039.59
2022-10-09T10:42:14.633Z,100041.63
2022-10-09T10:43:35.626Z,100042.61
2022-10-09T10:45:05.999Z,100043.26
2022-10-09T10:46:24.202Z,100039.28
2022-10-09T10:47:29.597Z,100033.81
2022-10-09T10:48:37.630Z,100039.06
2022-10-09T10:49:39.435Z,100035.91
2022-10-09T10:50:45.810Z,100043.26
2022-10-09T10:52:18.164Z,100042.62
2022-10-09T10:53:24.599Z,100035.84
2022-10-09T10:56:05.887Z,100025.27
2022-10-09T10:57:15.835Z,100035.38
2022-10-09T10:59:50.410Z,100025.75
2022-10-09T11:01:05.104Z,100025.03
2022-10-09T11:02:42.050Z,100016.97
2022-10-09T11:03:53.776Z,100015.30
2022-10-09T11:05:19.919Z,100014.33
2022-10-09T11:06:28.019Z,100009.49
2022-10-09T11:07:42.223Z,100018.88
2022-10-09T11:09:03.078Z,100009.73
2022-10-09T11:10:28.636Z,100013.73
2022-10-09T11:11:40.007Z,100011.00
2022-10-09T11:12:48.571Z,100012.77
2022-10-09T11:13:57.036Z,100019.71
2022-10-09T11:15:33.823Z,100007.64
2022-10-09T11:16:54.514Z,100009.41
2022-10-09T11:18:18.083Z,100008.67
2022-10-09T11:19:45.455Z,100012.23
2022-10-09T11:21:09.978Z,99999.41
2022-10-09T11:22:24.712Z,100000.03
2022-10-09T11:23:36.825Z,100003.80
2022-10-09T11:24:58.009Z,100002.34
2022-10-09T11:26:23.213Z,99995.09
2022-10-09T11:28:53.783Z,100000.33
2022-10-09T11:30:05.372Z,100004.00
2022-10-09T11:31:20.006Z,99998.02
2022-10-09T11:32:25.653Z,100000.66
2022-10-09T11:33:36.885Z,99997.95
2022-10-09T11:34:42.628Z,100005.61
2022-10-09T11:35:48.524Z,100002.03
2022-10-09T11:36:50.627Z,99993.95
2022-10-09T11:39:21.292Z,99994.53
2022-10-09T11:41:42.356Z,99995.58
2022-10-09T11:42:48.385Z,100010.31
2022-10-09T11:44:09.208Z,99998.41
2022-10-09T11:45:27.030Z,100001.05
2022-10-09T11:46:50.448Z,99999.78
2022-10-09T11:48:20.104Z,100004.92
2022-10-09T11:49:32.343Z,99999.80
2022-10-09T11:50:53.080Z,99997.60
2022-10-09T11:52:04.653Z,100013.50
2022-10-09T11:53:13.843Z,99997.32
2022-10-09T11:54:19.298Z,99995.84
2022-10-09T11:55:30.323Z,99996.69
2022-10-09T11:56:32.440Z,99994.17
2022-10-09T11:57:35.206Z,100002.38
2022-10-09T11:58:39.370Z,100005.94
2022-10-09T11:59:41.217Z,100001.31
2022-10-09T12:00:45.413Z,100000.46
2022-10-09T12:01:47.930Z,99998.26
2022-10-09T12:02:53.862Z,100004.45
2022-10-09T12:04:13.506Z,100002.58
2022-10-09T12:05:17.823Z,100004.27
2022-10-09T12:06:20.396Z,99999.83
2022-10-09T12:08:45.338Z,99993.95
2022-10-09T12:09:48.690Z,99999.01
2022-10-09T12:10:54.853Z,99991.95
2022-10-09T12:12:19.636Z,100004.69
2022-10-09T12:13:32.253Z,99993.85
2022-10-09T12:14:37.358Z,100009.09
2022-10-09T12:15:48.926Z,100006.11
2022-10-09T12:16:51.222Z,100008.22
2022-10-09T12:17:53.846Z,100007.47
2022-10-09T12:18:58.764Z,100008.96
2022-10-09T12:20:10.351Z,100010.62
2022-10-09T12:21:27.672Z,100007.98
2022-10-09T12:22:39.110Z,100011.59
2022-10-09T12:23:41.227Z,100016.63
2022-10-09T12:24:47.248Z,100023.04
2022-10-09T12:25:50.912Z,100013.88
2022-10-09T12:26:56.725Z,100021.88
2022-10-09T12:28:00.959Z,100024.47
2022-10-09T12:29:04.598Z,100032.98
2022-10-09T12:30:19.431Z,100030.02
2022-10-09T12:31:31.836Z,100031.88
2022-10-09T12:32:40.121Z,100034.20
2022-10-09T12:33:51.799Z,100029.56
2022-10-09T12:34:55.826Z,100046.87
2022-10-09T12:37:23.709Z,100040.47
2022-10-09T12:38:29.892Z,100038.11
2022-10-09T12:39:33.181Z,100046.41
2022-10-09T12:40:35.493Z,100041.73
2022-10-09T12:41:37.328Z,100048.50
2022-10-09T12:42:40.805Z,100045.02
2022-10-09T12:43:44.404Z,100061.79
2022-10-09T12:44:49.572Z,100068.65
2022-10-09T12:45:54.071Z,100066.67
2022-10-09T12:48:19.168Z,100057.95
2022-10-09T12:49:25.517Z,100060.27
2022-10-09T12:50:33.680Z,100056.63
2022-10-09T12:51:37.335Z,100065.35
2022-10-09T12:52:49.455Z,100068.73
2022-10-09T12:53:55.509Z,100061.58
2022-10-09T12:54:57.686Z,100067.94
2022-10-09T12:56:00.090Z,100062.14